Erik Jansson

Olheiro-Chefe - IF Elfsborg
3 Dez 2028
Domingo
Processo

Personalidade

Adaptabilidade (2) Ambição (9) Controvérsia (11) Lealdade (15) Pressão (6) Profissionalismo (5) Espírito Esportivo (1) Temperamento (1)

Perfil

Estilo de Treinamento Democrático
Licença Continental A
Determinação 8
Gestão de Pessoas 12
Motivação 10
Disciplina 7
Satisfação no Trabalho
100%
Fadiga
0%
Função Olheiro-Chefe
Salário 58.1K p/s
Contrato 14.03.2030

Desempenho

Comportamento Bom
Eficácia do Treinamento
36%
Desenvolvimento do Jogador
55%
Prevenção de Lesões
35%
Implementação Tática
20%

Eventos Recentes

Participou de uma reunião de recrutamento agora
Participou de uma reunião de recrutamento agora
Participou de uma reunião de recrutamento agora
Participou de uma reunião de recrutamento agora
Recomendou um alvo de transferência agora
Recomendou um alvo de transferência agora
Recomendou um alvo de transferência 7d atrás
Recomendou um alvo de transferência 7d atrás

Monitorando agora

286
Jogador Clube Status Habilidade Confiança Observado Última observação Último voto
Honest Ahanor Atalanta Ativo 144 / 153 40% 3 14.08.2028 -
Mateo Caballero Defensor Sporting Ativo 93 / 100 40% 1 14.08.2028 -
Matías Magdaleno Estudiantes Ativo 98 / 113 40% 1 14.08.2028 -
Kevin Filling AIK Negociando 108 / 120 72% 1 07.08.2028 -
Bernardo Lima Porto Ativo 107 / 129 40% 3 02.08.2028 -
Simone Suppa Virtus Verona Ativo 82 / 98 40% 1 02.08.2028 -
Trey Nyoni Rotherham United Ativo 138 / 146 40% 1 02.08.2028 -
Hosea Michael Remo Stars Ativo 91 / 87 40% 6 19.07.2028 -
Christos Mouzakitis Hull City Ativo 149 / 148 40% 2 19.07.2028 -
Peyton Miller New England Revolution Ativo 107 / 128 40% 1 19.07.2028 -
Neco Williams Wrexham Ativo 150 / 146 40% 2 15.07.2028 -
Brandon Thomas-Asante Blackpool Ativo 125 / 124 40% 2 15.07.2028 -
Tim Iroegbunam Peterborough United Ativo 137 / 143 40% 1 15.07.2028 -
Tyrese Campbell Sheffield United Ativo 138 / 127 40% 2 13.07.2028 -
Derensili Sanches Fernandes Huddersfield Town Ativo 142 / 135 40% 2 13.07.2028 -
Jayden Danns Bradford City Ativo 132 / 139 40% 1 13.07.2028 -
Jack McGlynn Stoke City Ativo 142 / 139 40% 4 11.07.2028 -
Jack Diamond Stockport County Ativo 132 / 128 40% 1 11.07.2028 -
Alex Robertson Cardiff City Ativo 128 / 125 40% 1 11.07.2028 -
Yann Gboho Toulouse FC Ativo 151 / 137 40% 1 08.07.2028 -
Jay Stansfield Birmingham Ativo 136 / 135 40% 1 08.07.2028 -
Babis Kostoulas Oxford United Ativo 135 / 142 40% 1 04.07.2028 -
Woody Williamson Accrington Stanley Ativo 96 / 104 40% 3 06.03.2028 -
Robert Cook Accrington Stanley Ativo 116 / 116 40% 1 06.03.2028 -
Alexandr Lubnin Zenit Penza Ativo 69 / 83 40% 1 03.02.2028 -
Kirill Kistenev Botev Vratsa Ativo 92 / 95 40% 1 03.02.2028 -
Nahuel Leivas Montevideo City Torque Ativo 106 / 116 40% 3 02.02.2028 -
Esquerdinha Notts County Ativo 113 / 125 40% 3 02.02.2028 -
Dmitry Zheltukhin Tver Ativo 74 / 75 40% 1 02.02.2028 -
Sam Proctor Salford City Ativo 120 / 125 40% 5 01.02.2028 -
David Fernández Unión de Santa Fe Ativo 94 / 86 40% 1 01.02.2028 -
Luciano Sokolic River Plate Ativo 88 / 89 40% 1 01.02.2028 -
Diego Vargas Universidad de Concepcion Ativo 91 / 90 40% 3 31.01.2028 -
Diego Mascardi Juventus Ativo 146 / 133 40% 1 30.01.2028 -
Lionel Madriaga Belgrano Ativo 82 / 103 40% 1 30.01.2028 -
Kayne Rizvanovich Minnesota United FC Ativo 104 / 92 40% 1 29.01.2028 -
Matías Molina Independiente Ativo 95 / 107 40% 1 29.01.2028 -
Enzo Gramajo Vélez Ativo 90 / 89 40% 1 29.01.2028 -
Felipe Pontoni Talleres Ativo 104 / 99 40% 2 28.01.2028 -
Álvaro Busso Vélez Ativo 108 / 111 40% 1 28.01.2028 -
Dylan Moody Cheltenham Town Ativo 106 / 118 40% 3 27.01.2028 -
Francisco Ventre Huracán Ativo 93 / 88 40% 1 27.01.2028 -
Duran Ferree San Diego Football Club Ativo 108 / 104 40% 1 25.01.2028 -
Ramiro Pueblas Argentinos Juniors Ativo 94 / 102 40% 1 25.01.2028 -
Hudson Sands Chelsea Ativo 89 / 90 40% 1 25.01.2028 -
Valentín Catalán Argentinos Juniors Ativo 84 / 88 40% 2 24.01.2028 -
Tiziano Delias Sarmiento Ativo 83 / 97 40% 2 22.01.2028 -
Matías Villa Envigado Ativo 95 / 101 40% 1 21.01.2028 -
Gianluca Valdiviezo Colón Ativo 99 / 110 40% 1 21.01.2028 -
Wolfgang Baumgartner Red Bull Salzburg Ativo 105 / 112 40% 2 19.01.2028 -
Linus Dahlgren Helsingborg Ativo 96 / 106 40% 1 19.01.2028 -
Martín D'Aurizio Huracán Ativo 88 / 112 40% 2 17.01.2028 -
Marcos Suárez Sevilla Ativo 83 / 99 40% 1 17.01.2028 -
William Nieroth Lundgren Orebro Ativo 98 / 106 40% 1 17.01.2028 -
Martim Cunha Porto Ativo 113 / 117 40% 2 13.01.2028 -
David Asayure Lokomotivi Ativo 91 / 84 40% 4 13.01.2028 -
Lucas Bergvall Tottenham Ativo 155 / 149 40% 4 12.01.2028 -
Åke Andersson IFK Norrkoping Ativo 96 / 99 40% 5 12.01.2028 -
Giovanni Leoni Lincoln City Ativo 141 / 152 40% 3 11.01.2028 -
Josh Acheampong Everton Ativo 143 / 149 40% 7 10.01.2028 -
Victor Hernandez Santa Fe Ativo 119 / 117 40% 6 10.01.2028 -
Malte Hallin GIF Sundsvall Ativo 96 / 102 40% 2 10.01.2028 -
Kiani Inge Groningen Ativo 106 / 117 40% 2 09.01.2028 -
Francisco Machis Llaneros Ativo 90 / 82 40% 5 08.01.2028 -
Caleb Yirenkyi Coventry City Ativo 133 / 138 40% 6 07.01.2028 -
Daniel Banjaqui Benfica Ativo 117 / 138 40% 1 07.01.2028 -
Noah Markmann Esbjerg Ativo 115 / 121 40% 1 07.01.2028 -
Jhusstyn Rentería Atletico Nacional Ativo 89 / 105 40% 1 07.01.2028 -
Naphtali Mokoena Bloemfontein Celtic Ativo 96 / 104 40% 1 07.01.2028 -
Matías Zorzoli Newell's Old Boys Ativo 101 / 113 40% 1 06.01.2028 -
Ulíses López Barracas Central Ativo 97 / 101 40% 1 06.01.2028 -
Lucas Camejo River Plate Ativo 94 / 97 40% 3 04.01.2028 -
Riquelme Thompson-Jones Accrington Stanley Ativo 115 / 121 40% 1 04.01.2028 -
Lucas Nicol Mjondalen Ativo 77 / 88 40% 2 03.01.2028 -
Olaniyi Saheed Kwara United Ativo 94 / 97 40% 4 26.12.2027 -
Ayden Heaven Portsmouth Ativo 151 / 150 40% 6 22.12.2027 -
Tomás Escobar Independiente Rivadavia Ativo 88 / 88 40% 1 21.12.2027 -
Máximo Suazo Central Norte Ativo 75 / 77 40% 1 21.12.2027 -
Andrew Rick Philadelphia Union Ativo 111 / 125 40% 1 19.12.2027 -
Seb Stacey Crawley Town Ativo 89 / 91 40% 1 18.12.2027 -
Fernando Soto Union Espanola Ativo 91 / 82 40% 1 18.12.2027 -
Jack Wint Sibenik Ativo 96 / 96 40% 1 17.12.2027 -
Danilo Monza Sarmiento Ativo 89 / 101 40% 1 17.12.2027 -
Sebastian Jensen Brighton Ativo 100 / 101 40% 1 14.12.2027 -
Julián Alcar Banfield Ativo 86 / 89 40% 1 14.12.2027 -
Lewys Benjamin Wolverhampton Ativo 82 / 93 40% 1 14.12.2027 -
Domnan Panse Plateau United Ativo 91 / 87 40% 1 12.12.2027 -
Alfonso Álvarez Ferro Carril Oeste Ativo 102 / 110 40% 1 11.12.2027 -
Lisandro Tejada San Martín SJ Ativo 102 / 96 40% 1 10.12.2027 -
Íker Blanco Deportivo Cali Ativo 103 / 106 40% 1 10.12.2027 -
Gideon Manaseh Ikorodu City Ativo 85 / 97 40% 3 09.12.2027 -
Juan Camilo Córdoba Deportivo Pereira Ativo 81 / 94 40% 2 08.12.2027 -
Erick Phiri Ajax Cape Town Ativo 69 / 78 40% 1 08.12.2027 -
Jair Collahuazo Kudrivka Ativo 104 / 110 40% 1 06.12.2027 -
Noel Sernelius IFK Norrkoping Ativo 111 / 106 40% 4 05.12.2027 -
Snyder Brunell Seattle Sounders Ativo 89 / 91 40% 1 05.12.2027 -
David Damboama El-Kanemi Warriors Ativo 84 / 89 40% 2 04.12.2027 -
Malte Heyde Esbjerg Ativo 109 / 114 40% 1 03.12.2027 -
Vince Osuji Stabaek Ativo 106 / 107 40% 2 02.12.2027 -
Tyler Fletcher Rotherham United Ativo 118 / 121 40% 1 30.11.2027 -
Joel Ezra Enyimba Ativo 95 / 92 40% 2 26.11.2027 -
Celías Ingenthron Platense Ativo 112 / 115 40% 1 26.11.2027 -
Edvard Pettersen Sandefjord Ativo 102 / 117 40% 1 26.11.2027 -
Matvey Bardachev Zenit Ativo 104 / 113 40% 1 25.11.2027 -
Matteo Pérez Vinlöf Dinamo Zagreb Ativo 116 / 122 40% 1 21.11.2027 -
Colin Guske Orlando City Ativo 94 / 109 40% 3 16.11.2027 -
Óscar Hinojosa Metropolitanos Ativo 72 / 97 40% 3 15.11.2027 -
Godwin Oham Warri Wolves Ativo 91 / 99 40% 3 14.11.2027 -
Ivan Borges Defensores Ativo 83 / 85 40% 3 14.11.2027 -
Josh Nichols Oldham Athletic Ativo 120 / 124 40% 3 12.11.2027 -
Sebastian Suvanne Samtredia Ativo 66 / 82 40% 1 11.11.2027 -
Mohamed Moussa Koïta Mathare United Ativo 89 / 105 40% 2 06.11.2027 -
Toheeb Adebayo Shooting Stars Ativo 73 / 81 40% 4 02.11.2027 -
Hugo Rojas Instituto Ativo 109 / 116 40% 1 29.10.2027 -
Björn Hedlöf Helsingborg Ativo 89 / 100 40% 2 26.10.2027 -
Jan Cedilnik Chikhura Ativo 83 / 93 40% 1 24.10.2027 -
Onyeuche Ujunwa Ikorodu City Ativo 77 / 103 40% 3 23.10.2027 -
Yury Oyarzo Racing Ativo 86 / 99 40% 2 22.10.2027 -
Aaron Branca Artigas Ativo 67 / 85 40% 1 21.10.2027 -
Adrian Skogmar Malmo FF Ativo 118 / 118 40% 2 18.10.2027 -
Idriss Ashiru Kariobangi Sharks Ativo 68 / 67 40% 1 17.10.2027 -
Joelson Gamarra General Caballero Ativo 70 / 70 40% 1 14.10.2027 -
Ignacio Fernández Boston River Ativo 95 / 95 40% 1 10.10.2027 -
Issa Yusuf Shooting Stars Ativo 86 / 90 40% 1 09.10.2027 -
Isaías Silva Miramar Misiones Ativo 81 / 84 40% 1 08.10.2027 -
Chibueze Oputa Rangers International Ativo 87 / 86 40% 1 08.10.2027 -
Facundo Balatti Penarol Ativo 108 / 116 40% 2 07.10.2027 -
Kevin Otiende Nairobi United Ativo 65 / 65 40% 1 07.10.2027 -
Dato Chakvetadze Zugdidi Ativo 91 / 85 40% 1 06.10.2027 -
Andrea Bertoncini Triestina Ativo 91 / 96 40% 4 16.08.2027 -
Montader Madjed Hammarby Ativo 109 / 120 72% 1 09.08.2027 -
Ilyas Ansah Hull City Ativo 132 / 130 40% 3 03.08.2027 -
Oladapo Afolayan Blackburn Rovers Ativo 133 / 133 40% 2 03.08.2027 -
Marc Bola Watford Ativo 120 / 126 40% 1 03.08.2027 -
Mikey Johnston West Bromwich Albion Ativo 131 / 131 40% 2 27.07.2027 -
Oleh Ocheretko FC Dallas Ativo 129 / 131 67% 1 16.07.2027 Aprovar
Johannes Eggestein Orlando City Ativo 125 / 125 68% 1 16.07.2027 Aprovar
Ikenna Nkwazema FC Diarra Ativo 83 / 75 40% 1 16.07.2027 -
Walter Molina Defensa y Justicia Ativo 80 / 88 40% 1 16.07.2027 -
Alexei Rojas Fedorushchenko Barrow AFC Ativo 124 / 119 40% 1 16.07.2027 -
George Hoddle Cambridge United Ativo 85 / 89 40% 1 14.07.2027 -
Jan Bürger Northampton Town Ativo 119 / 127 40% 3 13.07.2027 -
Joe Johnson Luton Town Ativo 113 / 107 40% 1 11.07.2027 -
Jenson Jones Walsall Ativo 102 / 98 40% 6 08.07.2027 -
Kazunari Kita Real Sociedad Ativo 102 / 113 40% 3 08.07.2027 -
Gonçalo Oliveira Benfica Ativo 112 / 124 40% 4 06.07.2027 -
Charlie Gray Fleetwood Town Ativo 92 / 103 40% 5 06.07.2027 -
Tiago Freitas Benfica Ativo 116 / 125 40% 3 06.07.2027 -
Riley Owen Stevenage Ativo 102 / 109 40% 6 04.07.2027 -
Sascha Britschgi AC Milan Ativo 124 / 137 40% 6 01.07.2027 -
Rhys Walters Port Vale Ativo 99 / 113 40% 4 27.06.2027 -
Edwin Asamoah Berekum Chelsea Ativo 82 / 89 40% 1 27.06.2027 -
Olalekan Adeleke Remo Stars Ativo 87 / 103 40% 1 26.06.2027 -
Chari Giwa US Bougouni Ativo 72 / 79 40% 3 25.06.2027 -
Leandro Martins Benfica Ativo 90 / 99 40% 1 22.06.2027 -
Pedro Vian Seewald Dolomiti Bellunesi Ativo 91 / 104 40% 2 19.06.2027 -
Daniel Idoko Ikorodu City Ativo 80 / 101 40% 1 19.06.2027 -
Gady Beyuku Blackburn Rovers Ativo 105 / 111 40% 1 16.06.2027 -
Maldini Kacurri Grimsby Town Ativo 100 / 106 40% 2 15.06.2027 -
Ahmed Akinyele Remo Stars Ativo 101 / 95 40% 2 08.06.2027 -
Ahmed Zaki Masr El Makasa Ativo 77 / 76 40% 1 07.06.2027 -
Wessel Kuhn PSV Ativo 97 / 117 40% 1 04.06.2027 -
Rivaldo Mkhize Black Aces Ativo 83 / 97 40% 2 02.06.2027 -
Eliás Montiel Borussia Dortmund Ativo 133 / 131 40% 2 26.05.2027 -
Tommaso Cecotti Carpi Ativo 84 / 95 40% 3 21.05.2027 -
Mpho Khethang FC Diarra Ativo 91 / 95 40% 2 17.05.2027 -
Bence Dárdai VfL Wolfsburg Ativo 136 / 140 40% 1 14.05.2027 -
Teboho Mokoena Black Aces Ativo 85 / 85 40% 1 12.05.2027 -
Afriyie Sulemana WAFA Ativo 78 / 88 40% 2 07.05.2027 -
Ezra Mayers West Ham United Ativo 110 / 124 40% 3 03.05.2027 -
Amine Boukamir Charleroi Ativo 97 / 102 40% 2 01.05.2027 -
Zane Albarus Shrewsbury Town Ativo 104 / 93 40% 1 26.04.2027 -
Alessandro Zoboletti Sambenedettese Ativo 84 / 88 40% 1 26.04.2027 -
Mahmoud Labib Heart of Lions Ativo 77 / 80 40% 1 22.04.2027 -
Riyad Idrissi Cagliari Ativo 115 / 125 40% 2 21.04.2027 -
David Ozoh Derby County Ativo 116 / 120 40% 1 12.04.2027 -
Lucas Assadi AIK Ativo 123 / 127 69% 1 15.03.2027 Aprovar
Brayan Gil Baltika Ativo 136 / 118 40% 4 15.02.2027 -
Sampson Dweh Mallorca Ativo 133 / 134 66% 1 01.02.2027 Aprovar
Tyreece Campbell Charlton Athletic Ativo 120 / 122 40% 2 31.01.2027 -
Vladislav Blănuţă Lechia Ativo 123 / 112 40% 3 31.01.2027 -
Bienvenue Kanakimana Zbrojovka Brno Ativo 111 / 123 40% 3 29.01.2027 -
Etiosa Ighodaro Kaizer Chiefs Ativo 101 / 116 40% 6 29.01.2027 -
Aune Heggebø West Bromwich Albion Ativo 120 / 133 40% 2 29.01.2027 -
Richard Koné Queens Park Rangers Ativo 130 / 131 40% 3 28.01.2027 -
Yousef Salech Cardiff City Ativo 136 / 119 40% 4 27.01.2027 -
Cameron Archer Southampton Ativo 132 / 135 40% 2 26.01.2027 -
Ar'jany Martha Rotherham United Ativo 102 / 109 40% 1 26.01.2027 -
Othmane Maamma Watford Ativo 112 / 124 40% 1 26.01.2027 -
Isaiah Jones Luton Town Ativo 135 / 118 40% 3 24.01.2027 -
Cian Ashford Cardiff City Ativo 126 / 111 40% 1 24.01.2027 -
Max Johnston Derby County Ativo 133 / 134 40% 1 23.01.2027 -
Rocco Vata Watford Ativo 130 / 135 40% 3 22.01.2027 -
Patrick Agyemang Derby County Ativo 123 / 124 40% 2 20.01.2027 -
Filip Kubala Banik Ostrava Ativo 121 / 126 40% 1 18.01.2027 -
Jason Knight Bristol City Ativo 131 / 126 40% 1 17.01.2027 -
Peter Federico Gornik Zabrze Ativo 127 / 122 40% 1 17.01.2027 -
Darragh Burns Grimsby Town Ativo 94 / 103 40% 1 17.01.2027 -
Armstrong Oko-Flex Levski Ativo 121 / 120 40% 5 16.01.2027 -
Jakub Kadák Dukla Prague Ativo 112 / 109 40% 1 16.01.2027 -
Artem Slesar Zorya Ativo 119 / 123 40% 1 14.01.2027 -
Stephen Amankona Aduana Stars Ativo 92 / 91 40% 1 14.01.2027 -
Matej Trusa DAC Dunajska Streda Ativo 124 / 105 40% 3 13.01.2027 -
Giorgi Kvernadze Frosinone Ativo 132 / 122 40% 1 11.01.2027 -
Dale Taylor Blackpool Ativo 114 / 121 40% 2 08.01.2027 -
Youssoufa Moukoko FC Copenhagen Ativo 123 / 133 40% 1 07.01.2027 -
Tony Springett Cheltenham Town Ativo 96 / 108 40% 1 07.01.2027 -
Luis Caicedo Spartak 1918 Ativo 89 / 97 40% 1 04.01.2027 -
Petar Stanić Ludogorets Ativo 127 / 131 40% 2 03.01.2027 -
Bradley Zwane SuperSport United Ativo 120 / 106 40% 1 03.01.2027 -
Max Fenger Helsingborg Ativo 128 / 118 40% 5 01.01.2027 Observar
Welington Southampton Ativo 122 / 128 40% 1 31.12.2026 -
Josh Coburn Millwall Ativo 128 / 109 40% 1 31.12.2026 -
Lorent Tolaj Plymouth Argyle Ativo 128 / 124 40% 1 31.12.2026 -
Sota Kitano Red Bull Salzburg Ativo 114 / 124 40% 3 29.12.2026 Observar
Bongani Zungu Ajax Cape Town Ativo 130 / 129 40% 3 28.12.2026 -
Marezi Portsmouth Ativo 114 / 133 40% 1 22.12.2026 -
Ola Brynhildsen Rapid Wien Ativo 131 / 122 40% 4 18.12.2026 -
Jacques Siwe Rubin Ativo 118 / 109 40% 1 17.12.2026 -
David Turnbull Cardiff City Ativo 120 / 117 40% 1 17.12.2026 -
Alfie Doughty Millwall Ativo 124 / 118 40% 2 16.12.2026 -
Finn Azaz Southampton Ativo 132 / 128 40% 1 16.12.2026 -
Vitalii Dakhnovskyi Bukovyna Ativo 101 / 104 40% 1 16.12.2026 -
Dylan Levitt Leyton Orient Ativo 109 / 114 40% 1 14.12.2026 -
Jesus Ferreira Seattle Sounders Ativo 120 / 132 40% 3 12.12.2026 -
Oliver Skipp Leicester City Ativo 123 / 138 40% 1 11.12.2026 -
Adam Randell Bristol City Ativo 140 / 119 40% 1 11.12.2026 -
Joe Gelhardt Hull City Ativo 132 / 129 40% 2 09.12.2026 -
Max Bird Birmingham Ativo 135 / 123 40% 1 07.12.2026 -
Bamba Dieng Crvena Zvezda Ativo 135 / 132 40% 1 05.12.2026 -
Diego García Malmo FF Ativo 121 / 116 40% 1 03.12.2026 -
Paulos Abraham Hammarby Ativo 127 / 126 40% 2 02.12.2026 -
Talles Magno New York City Ativo 137 / 137 40% 2 01.12.2026 -
Mandla Kekana Ajax Cape Town Ativo 116 / 117 40% 1 01.12.2026 -
Will Swan Bradford City Ativo 97 / 92 40% 3 29.11.2026 -
Petter Nosa Dahl Rapid Wien Ativo 114 / 132 40% 1 28.11.2026 -
Yorbe Vertessen Red Bull Salzburg Ativo 120 / 120 40% 2 26.11.2026 -
Lebogang Manyama SuperSport United Ativo 100 / 110 40% 1 26.11.2026 -
Mayckel Lahdo Malmo FF Ativo 134 / 135 40% 1 26.11.2026 -
Tobias Gulliksen Rapid Wien Ativo 135 / 121 40% 1 25.11.2026 -
Obilor Okeke Hammarby Ativo 118 / 119 40% 1 20.11.2026 -
Michele Šego Hajduk Split Ativo 129 / 119 40% 1 19.11.2026 -
Isaac Matondo Koper Ativo 106 / 112 40% 2 15.11.2026 -
Martín Ojeda Orlando City Ativo 134 / 144 40% 3 14.11.2026 -
Erick Dolly Black Aces Ativo 100 / 110 40% 2 11.11.2026 -
Radek Šiler Podbrezova Ativo 117 / 107 40% 2 11.11.2026 -
Dejan Joveljić Seattle Sounders Ativo 135 / 128 40% 1 11.11.2026 -
Kévin Denkey FC Cincinnati Ativo 137 / 120 40% 4 07.11.2026 -
Johan Hove AIK Ativo 121 / 117 40% 1 07.11.2026 -
Jens Petter Hauge Bodo/Glimt Ativo 135 / 139 40% 1 07.11.2026 -
Luis Palma Lech Ativo 114 / 126 40% 1 05.11.2026 -
Bénie Traoré New York City Ativo 113 / 125 40% 2 04.11.2026 -
Assad Al Hamlawi Universitatea Craiova Ativo 110 / 125 40% 1 04.11.2026 -
Alexander Aravena Portland Timbers Ativo 134 / 126 40% 1 02.11.2026 -
Evidence Makgopa Orlando Pirates Ativo 106 / 104 40% 1 02.11.2026 -
Nazar Voloshyn Dynamo Kyiv Ativo 126 / 124 40% 1 02.11.2026 Mais informações
Elias Achouri San Diego Football Club Ativo 140 / 128 40% 1 02.11.2026 -
Matías Contrera Hrvatski Dragovoljac Ativo 94 / 97 40% 1 31.10.2026 -
Kelvin Yeboah Minnesota United FC Ativo 124 / 134 40% 2 29.10.2026 -
Adam Akimey Helsingborg Ativo 93 / 108 40% 1 27.10.2026 -
Agustín Anello Philadelphia Union Ativo 123 / 124 40% 1 26.10.2026 -
Tadeo Allende Inter Miami CF Ativo 113 / 114 40% 2 25.10.2026 -
Duncan McGuire Houston Dynamo Ativo 126 / 123 40% 1 23.10.2026 -
Emmanuel Gono AIK Ativo 97 / 94 40% 1 23.10.2026 -
Germán Berterame Inter Miami CF Ativo 131 / 126 40% 1 20.10.2026 -
Omar Faraj Halmstad Ativo 114 / 106 40% 1 19.10.2026 -
Kristian Strømland Lien Djurgarden Ativo 109 / 117 40% 1 18.10.2026 -
Conrad Wallem Djurgarden Ativo 135 / 125 40% 1 18.10.2026 -
Oswin Appollis Orlando Pirates Ativo 113 / 130 40% 1 18.10.2026 -
Ammar Ramadan DAC Dunajska Streda Ativo 129 / 128 40% 1 18.10.2026 -
David Miculescu FCSB Ativo 124 / 130 40% 1 12.10.2026 -
Patrik Mijić HNK Gorica Ativo 101 / 104 40% 1 12.10.2026 -
Daniel Karlsbakk Sarpsborg 08 Ativo 121 / 124 40% 1 10.10.2026 -
Wessam Abou Ali Columbus Crew Ativo 133 / 124 40% 1 10.10.2026 -
Bo Hegland Djurgarden Ativo 100 / 106 40% 1 10.10.2026 -
Emmanuel Ekong Malmo FF Ativo 111 / 111 40% 1 08.10.2026 -
Adrian Svanbäck BK Hacken Ativo 126 / 122 40% 1 08.10.2026 -
Sead Hakšabanović Malmo FF Ativo 127 / 115 40% 1 08.10.2026 -
Ayoub Jabbari FC Cincinnati Ativo 112 / 103 40% 1 09.09.2026 -
Lucas Souto Defensa y Justicia Ativo 116 / 127 40% 1 09.09.2026 -
David Da Costa Portland Timbers Ativo 135 / 122 40% 1 09.09.2026 -
Eskil Edh AIK Ativo 118 / 120 40% 1 07.09.2026 -
Ho-yeon Jung Minnesota United FC Ativo 121 / 118 40% 1 07.09.2026 -
Aiden O'Neill New York City Ativo 109 / 124 40% 1 03.08.2026 -
Morgan Guilavogui Real Salt Lake Ativo 134 / 126 40% 1 03.08.2026 -
Youri Tielemans Manchester United Ativo 167 / 160 40% 1 01.08.2026 -